DAL553 KLAS-KLAX
Flight info
| Callsign | DAL553 |
|---|---|
| Flight time | 0h 39m |
| Altitude | 28000 |
| Route | KLAS RADYR2 BLAQQ DCT SHTNR ANJLL4 KLAX |
| Aircraft | A321/M-V/N |
Departure
| Time | 2026-05-07 13:23 |
|---|---|
| Airport | Harry Reid International Airport (KLAS) |
Arrival
| Time | 2026-05-07 14:03 |
|---|---|
| Airport | Los Angeles International Airport (KLAX) |
| Time | Latitude | Longitude | Altitude | Speed | Heading |
|---|---|---|---|---|---|
| 2026-05-07 13:09 | 36.07955 | -115.14671 | 2188 ft | 0 kts | 27° |
| 2026-05-07 13:12 | 36.07954 | -115.14671 | 2188 ft | 1 kts | 27° |
| 2026-05-07 13:12 | 36.07934 | -115.14685 | 2188 ft | 4 kts | 32° |
| 2026-05-07 13:12 | 36.07912 | -115.14704 | 2192 ft | 4 kts | 47° |
| 2026-05-07 13:13 | 36.07901 | -115.14727 | 2188 ft | 4 kts | 112° |
| 2026-05-07 13:13 | 36.07903 | -115.14733 | 2188 ft | 0 kts | 164° |
| 2026-05-07 13:18 | 36.07901 | -115.14732 | 2188 ft | 2 kts | 164° |
| 2026-05-07 13:18 | 36.07824 | -115.14721 | 2191 ft | 17 kts | 176° |
| 2026-05-07 13:19 | 36.07765 | -115.14605 | 2189 ft | 23 kts | 97° |
| 2026-05-07 13:19 | 36.07754 | -115.14372 | 2188 ft | 28 kts | 94° |
| 2026-05-07 13:19 | 36.07750 | -115.14135 | 2188 ft | 27 kts | 88° |
| 2026-05-07 13:19 | 36.07753 | -115.13909 | 2189 ft | 26 kts | 89° |
| 2026-05-07 13:20 | 36.07754 | -115.13692 | 2189 ft | 25 kts | 91° |
| 2026-05-07 13:20 | 36.07755 | -115.13483 | 2190 ft | 24 kts | 89° |
| 2026-05-07 13:20 | 36.07755 | -115.13282 | 2189 ft | 23 kts | 90° |
| 2026-05-07 13:20 | 36.07755 | -115.13085 | 2189 ft | 23 kts | 90° |
| 2026-05-07 13:21 | 36.07756 | -115.12894 | 2191 ft | 22 kts | 90° |
| 2026-05-07 13:21 | 36.07757 | -115.12707 | 2188 ft | 22 kts | 90° |
| 2026-05-07 13:21 | 36.07738 | -115.12611 | 2188 ft | 0 kts | 137° |
| 2026-05-07 13:22 | 36.07721 | -115.12601 | 2191 ft | 8 kts | 161° |
| 2026-05-07 13:22 | 36.07651 | -115.12631 | 2190 ft | 11 kts | 235° |
| 2026-05-07 13:22 | 36.07642 | -115.12718 | 2189 ft | 10 kts | 272° |
| 2026-05-07 13:22 | 36.07644 | -115.12925 | 2188 ft | 54 kts | 270° |
| 2026-05-07 13:23 | 36.07641 | -115.13666 | 2194 ft | 116 kts | 270° |
| 2026-05-07 13:23 | 36.07639 | -115.14870 | 2192 ft | 162 kts | 270° |
| 2026-05-07 13:23 | 36.07635 | -115.16322 | 2607 ft | 167 kts | 270° |
| 2026-05-07 13:23 | 36.07643 | -115.17761 | 3198 ft | 170 kts | 271° |
| 2026-05-07 13:24 | 36.07663 | -115.19256 | 3669 ft | 179 kts | 270° |
| 2026-05-07 13:24 | 36.07641 | -115.20872 | 3942 ft | 199 kts | 263° |
| 2026-05-07 13:24 | 36.07394 | -115.22655 | 4097 ft | 223 kts | 259° |
| 2026-05-07 13:24 | 36.07060 | -115.24633 | 4367 ft | 245 kts | 251° |
| 2026-05-07 13:25 | 36.06055 | -115.26343 | 4953 ft | 258 kts | 216° |
| 2026-05-07 13:25 | 36.04433 | -115.27452 | 5448 ft | 273 kts | 202° |
| 2026-05-07 13:25 | 36.02633 | -115.28276 | 6178 ft | 279 kts | 198° |
| 2026-05-07 13:25 | 36.00766 | -115.29012 | 6937 ft | 284 kts | 197° |
| 2026-05-07 13:26 | 35.98853 | -115.29665 | 7676 ft | 287 kts | 189° |
| 2026-05-07 13:26 | 35.96859 | -115.30047 | 8358 ft | 292 kts | 189° |
| 2026-05-07 13:26 | 35.94846 | -115.30481 | 9043 ft | 296 kts | 190° |
| 2026-05-07 13:26 | 35.92807 | -115.30957 | 9730 ft | 299 kts | 190° |
| 2026-05-07 13:27 | 35.90744 | -115.31460 | 10328 ft | 309 kts | 191° |
| 2026-05-07 13:27 | 35.88559 | -115.32001 | 10516 ft | 331 kts | 191° |
| 2026-05-07 13:27 | 35.86239 | -115.32581 | 10866 ft | 347 kts | 191° |
| 2026-05-07 13:27 | 35.83851 | -115.33176 | 11494 ft | 353 kts | 191° |
| 2026-05-07 13:28 | 35.81423 | -115.33773 | 12180 ft | 358 kts | 191° |
| 2026-05-07 13:28 | 35.78966 | -115.34371 | 12883 ft | 362 kts | 191° |
| 2026-05-07 13:28 | 35.76481 | -115.34977 | 13562 ft | 367 kts | 191° |
| 2026-05-07 13:28 | 35.73961 | -115.35591 | 14240 ft | 371 kts | 190° |
| 2026-05-07 13:29 | 35.71420 | -115.36212 | 14890 ft | 375 kts | 190° |
| 2026-05-07 13:29 | 35.68843 | -115.36839 | 15531 ft | 379 kts | 190° |
| 2026-05-07 13:29 | 35.66243 | -115.37472 | 16172 ft | 383 kts | 190° |
| 2026-05-07 13:29 | 35.63615 | -115.38115 | 16787 ft | 387 kts | 190° |
| 2026-05-07 13:30 | 35.60945 | -115.38630 | 17387 ft | 390 kts | 182° |
| 2026-05-07 13:30 | 35.58228 | -115.38605 | 17969 ft | 392 kts | 174° |
| 2026-05-07 13:30 | 35.55489 | -115.38402 | 18550 ft | 396 kts | 174° |
| 2026-05-07 13:30 | 35.52730 | -115.38198 | 19124 ft | 399 kts | 174° |
| 2026-05-07 13:31 | 35.49948 | -115.37994 | 19657 ft | 403 kts | 174° |
| 2026-05-07 13:31 | 35.47131 | -115.37863 | 20175 ft | 408 kts | 180° |
| 2026-05-07 13:31 | 35.44296 | -115.38270 | 20686 ft | 413 kts | 191° |
| 2026-05-07 13:31 | 35.41541 | -115.39314 | 21191 ft | 417 kts | 202° |
| 2026-05-07 13:32 | 35.38931 | -115.40906 | 21680 ft | 421 kts | 208° |
| 2026-05-07 13:32 | 35.36335 | -115.42584 | 22161 ft | 424 kts | 208° |
| 2026-05-07 13:32 | 35.33711 | -115.44265 | 22643 ft | 427 kts | 207° |
| 2026-05-07 13:32 | 35.31066 | -115.45949 | 23115 ft | 430 kts | 207° |
| 2026-05-07 13:33 | 35.28399 | -115.47642 | 23558 ft | 434 kts | 208° |
| 2026-05-07 13:33 | 35.25709 | -115.49352 | 23989 ft | 437 kts | 207° |
| 2026-05-07 13:33 | 35.23004 | -115.51075 | 24418 ft | 440 kts | 208° |
| 2026-05-07 13:33 | 35.20286 | -115.52810 | 24836 ft | 442 kts | 208° |
| 2026-05-07 13:34 | 35.17551 | -115.54555 | 25254 ft | 445 kts | 208° |
| 2026-05-07 13:34 | 35.12244 | -115.58402 | 26050 ft | 449 kts | 219° |
| 2026-05-07 13:34 | 35.09950 | -115.60990 | 26419 ft | 450 kts | 228° |
| 2026-05-07 13:35 | 35.07796 | -115.63771 | 26807 ft | 452 kts | 228° |
| 2026-05-07 13:35 | 35.05622 | -115.66566 | 27181 ft | 455 kts | 228° |
| 2026-05-07 13:35 | 35.03432 | -115.69364 | 27543 ft | 457 kts | 228° |
| 2026-05-07 13:35 | 35.01228 | -115.72173 | 27897 ft | 459 kts | 228° |
| 2026-05-07 13:36 | 34.99013 | -115.74989 | 28068 ft | 460 kts | 228° |
| 2026-05-07 13:36 | 34.96826 | -115.77765 | 28100 ft | 447 kts | 228° |
| 2026-05-07 13:36 | 34.94682 | -115.80485 | 28100 ft | 443 kts | 228° |
| 2026-05-07 13:37 | 34.90428 | -115.85897 | 28100 ft | 441 kts | 228° |
| 2026-05-07 13:37 | 34.86193 | -115.91289 | 28101 ft | 441 kts | 228° |
| 2026-05-07 13:38 | 34.81938 | -115.96684 | 28110 ft | 442 kts | 228° |
| 2026-05-07 13:38 | 34.77675 | -116.02076 | 28106 ft | 442 kts | 228° |
| 2026-05-07 13:39 | 34.73429 | -116.07473 | 28099 ft | 441 kts | 228° |
| 2026-05-07 13:39 | 34.69200 | -116.12876 | 28098 ft | 441 kts | 228° |
| 2026-05-07 13:40 | 34.64965 | -116.18276 | 28092 ft | 441 kts | 228° |
| 2026-05-07 13:40 | 34.60719 | -116.23671 | 28116 ft | 442 kts | 228° |
| 2026-05-07 13:41 | 34.56451 | -116.29060 | 28131 ft | 443 kts | 227° |
| 2026-05-07 13:41 | 34.52186 | -116.34445 | 28129 ft | 443 kts | 228° |
| 2026-05-07 13:42 | 34.47927 | -116.39833 | 28134 ft | 442 kts | 228° |
| 2026-05-07 13:42 | 34.43668 | -116.45209 | 28154 ft | 442 kts | 229° |
| 2026-05-07 13:43 | 34.40197 | -116.51274 | 27975 ft | 437 kts | 246° |
| 2026-05-07 13:43 | 34.38852 | -116.54564 | 27723 ft | 435 kts | 246° |
| 2026-05-07 13:43 | 34.37512 | -116.57839 | 27475 ft | 433 kts | 246° |
| 2026-05-07 13:43 | 34.36177 | -116.61095 | 27229 ft | 431 kts | 246° |
| 2026-05-07 13:44 | 34.34858 | -116.64294 | 26980 ft | 429 kts | 246° |
| 2026-05-07 13:44 | 34.33532 | -116.67494 | 26606 ft | 423 kts | 246° |
| 2026-05-07 13:44 | 34.32228 | -116.70667 | 26127 ft | 419 kts | 246° |
| 2026-05-07 13:44 | 34.30952 | -116.73825 | 25683 ft | 415 kts | 246° |
| 2026-05-07 13:45 | 34.29700 | -116.76954 | 25235 ft | 411 kts | 247° |
| 2026-05-07 13:45 | 34.28465 | -116.80053 | 24798 ft | 407 kts | 247° |
| 2026-05-07 13:45 | 34.27241 | -116.83118 | 24356 ft | 403 kts | 247° |
| 2026-05-07 13:45 | 34.26023 | -116.86150 | 23911 ft | 399 kts | 246° |
| 2026-05-07 13:46 | 34.24810 | -116.89155 | 23464 ft | 396 kts | 246° |
| 2026-05-07 13:46 | 34.23603 | -116.92135 | 23004 ft | 394 kts | 246° |
| 2026-05-07 13:46 | 34.22402 | -116.95100 | 22530 ft | 392 kts | 246° |
| 2026-05-07 13:46 | 34.21229 | -116.98053 | 22075 ft | 388 kts | 250° |
| 2026-05-07 13:47 | 34.20343 | -117.01114 | 21594 ft | 384 kts | 255° |
| 2026-05-07 13:47 | 34.19523 | -117.04181 | 21107 ft | 382 kts | 255° |
| 2026-05-07 13:47 | 34.18706 | -117.07220 | 20624 ft | 380 kts | 255° |
| 2026-05-07 13:47 | 34.17886 | -117.10247 | 20123 ft | 378 kts | 255° |
| 2026-05-07 13:48 | 34.17068 | -117.13257 | 19650 ft | 376 kts | 255° |
| 2026-05-07 13:48 | 34.16254 | -117.16254 | 19168 ft | 375 kts | 254° |
| 2026-05-07 13:48 | 34.15440 | -117.19235 | 18637 ft | 374 kts | 254° |
| 2026-05-07 13:48 | 34.14624 | -117.22207 | 18159 ft | 371 kts | 254° |
| 2026-05-07 13:49 | 34.13810 | -117.25150 | 17711 ft | 369 kts | 254° |
| 2026-05-07 13:49 | 34.12999 | -117.28079 | 17259 ft | 367 kts | 254° |
| 2026-05-07 13:49 | 34.12195 | -117.30986 | 16823 ft | 364 kts | 253° |
| 2026-05-07 13:49 | 34.11397 | -117.33878 | 16398 ft | 362 kts | 253° |
| 2026-05-07 13:50 | 34.10606 | -117.36746 | 15968 ft | 359 kts | 253° |
| 2026-05-07 13:50 | 34.09841 | -117.39607 | 15539 ft | 357 kts | 255° |
| 2026-05-07 13:50 | 34.09118 | -117.42466 | 15105 ft | 355 kts | 255° |
| 2026-05-07 13:50 | 34.08419 | -117.45308 | 14678 ft | 353 kts | 255° |
| 2026-05-07 13:51 | 34.07726 | -117.48141 | 14255 ft | 351 kts | 255° |
| 2026-05-07 13:51 | 34.07117 | -117.50971 | 13807 ft | 348 kts | 261° |
| 2026-05-07 13:51 | 34.06640 | -117.53846 | 13234 ft | 351 kts | 260° |
| 2026-05-07 13:51 | 34.06158 | -117.56732 | 12792 ft | 349 kts | 260° |
| 2026-05-07 13:52 | 34.05678 | -117.59608 | 12268 ft | 350 kts | 260° |
| 2026-05-07 13:52 | 34.05200 | -117.62454 | 11859 ft | 343 kts | 259° |
| 2026-05-07 13:52 | 34.04725 | -117.65256 | 11168 ft | 340 kts | 259° |
| 2026-05-07 13:52 | 34.04253 | -117.68032 | 10528 ft | 335 kts | 259° |
| 2026-05-07 13:53 | 34.03790 | -117.70744 | 10133 ft | 322 kts | 259° |
| 2026-05-07 13:53 | 34.03354 | -117.73299 | 10071 ft | 300 kts | 259° |
| 2026-05-07 13:53 | 34.02949 | -117.75675 | 9977 ft | 280 kts | 259° |
| 2026-05-07 13:53 | 34.02563 | -117.77951 | 9506 ft | 276 kts | 259° |
| 2026-05-07 13:54 | 34.02179 | -117.80205 | 9032 ft | 272 kts | 258° |
| 2026-05-07 13:54 | 34.01799 | -117.82421 | 8564 ft | 268 kts | 258° |
| 2026-05-07 13:54 | 34.01426 | -117.84602 | 8125 ft | 263 kts | 259° |
| 2026-05-07 13:54 | 34.01059 | -117.86746 | 7684 ft | 259 kts | 259° |
| 2026-05-07 13:55 | 34.00819 | -117.88146 | 7398 ft | 256 kts | 259° |
| 2026-05-07 13:55 | 34.00461 | -117.90234 | 6977 ft | 252 kts | 259° |
| 2026-05-07 13:55 | 34.00107 | -117.92294 | 6549 ft | 249 kts | 259° |
| 2026-05-07 13:55 | 33.99754 | -117.94337 | 6130 ft | 250 kts | 259° |
| 2026-05-07 13:56 | 33.99396 | -117.96402 | 5711 ft | 253 kts | 259° |
| 2026-05-07 13:56 | 33.99036 | -117.98492 | 5280 ft | 256 kts | 259° |
| 2026-05-07 13:56 | 33.98674 | -118.00611 | 4843 ft | 259 kts | 259° |
| 2026-05-07 13:56 | 33.98308 | -118.02748 | 4405 ft | 262 kts | 259° |
| 2026-05-07 13:57 | 33.97940 | -118.04886 | 4171 ft | 255 kts | 259° |
| 2026-05-07 13:57 | 33.97587 | -118.06926 | 4103 ft | 243 kts | 258° |
| 2026-05-07 13:57 | 33.97249 | -118.08875 | 4011 ft | 233 kts | 258° |
| 2026-05-07 13:57 | 33.96917 | -118.10771 | 3920 ft | 231 kts | 258° |
| 2026-05-07 13:58 | 33.96556 | -118.12652 | 3824 ft | 230 kts | 254° |
| 2026-05-07 13:58 | 33.96175 | -118.14523 | 3721 ft | 230 kts | 260° |
| 2026-05-07 13:58 | 33.95943 | -118.16373 | 3620 ft | 216 kts | 263° |
| 2026-05-07 13:58 | 33.95768 | -118.18124 | 3384 ft | 205 kts | 264° |
| 2026-05-07 13:59 | 33.95602 | -118.19790 | 3120 ft | 196 kts | 263° |
| 2026-05-07 13:59 | 33.95443 | -118.21381 | 2865 ft | 188 kts | 263° |
| 2026-05-07 13:59 | 33.95289 | -118.22910 | 2614 ft | 181 kts | 263° |
| 2026-05-07 13:59 | 33.95141 | -118.24392 | 2377 ft | 175 kts | 263° |
| 2026-05-07 14:00 | 33.94997 | -118.25821 | 2147 ft | 168 kts | 263° |
| 2026-05-07 14:00 | 33.94863 | -118.27147 | 1948 ft | 153 kts | 263° |
| 2026-05-07 14:00 | 33.94738 | -118.28389 | 1737 ft | 147 kts | 263° |
| 2026-05-07 14:00 | 33.94616 | -118.29597 | 1549 ft | 144 kts | 263° |
| 2026-05-07 14:01 | 33.94495 | -118.30788 | 1357 ft | 143 kts | 263° |
| 2026-05-07 14:01 | 33.94375 | -118.31976 | 1166 ft | 142 kts | 263° |
| 2026-05-07 14:01 | 33.94255 | -118.33153 | 987 ft | 142 kts | 263° |
| 2026-05-07 14:01 | 33.94136 | -118.34326 | 792 ft | 141 kts | 263° |
| 2026-05-07 14:02 | 33.94021 | -118.35500 | 616 ft | 142 kts | 263° |
| 2026-05-07 14:02 | 33.93898 | -118.36688 | 427 ft | 142 kts | 262° |
| 2026-05-07 14:02 | 33.93782 | -118.37845 | 230 ft | 138 kts | 264° |
| 2026-05-07 14:02 | 33.93661 | -118.38958 | 106 ft | 126 kts | 264° |
| 2026-05-07 14:03 | 33.93580 | -118.39813 | 97 ft | 64 kts | 263° |
| 2026-05-07 14:03 | 33.93562 | -118.40059 | 98 ft | 17 kts | 273° |
| 2026-05-07 14:03 | 33.93589 | -118.40255 | 95 ft | 29 kts | 290° |
| 2026-05-07 14:03 | 33.93621 | -118.40482 | 95 ft | 27 kts | 262° |
| 2026-05-07 14:04 | 33.93600 | -118.40702 | 94 ft | 26 kts | 264° |
| 2026-05-07 14:04 | 33.93645 | -118.40885 | 95 ft | 23 kts | 335° |
| 2026-05-07 14:04 | 33.93801 | -118.40913 | 93 ft | 23 kts | 352° |
| 2026-05-07 14:04 | 33.93861 | -118.40977 | 93 ft | 15 kts | 269° |
| 2026-05-07 14:05 | 33.93853 | -118.41125 | 92 ft | 17 kts | 290° |
| 2026-05-07 14:05 | 33.93952 | -118.41171 | 93 ft | 16 kts | 353° |
| 2026-05-07 14:05 | 33.94058 | -118.41189 | 93 ft | 15 kts | 352° |
| 2026-05-07 14:05 | 33.94161 | -118.41204 | 93 ft | 15 kts | 353° |
| 2026-05-07 14:06 | 33.94248 | -118.41183 | 94 ft | 13 kts | 56° |
| 2026-05-07 14:06 | 33.94263 | -118.41103 | 93 ft | 0 kts | 83° |